Time;durP1;ratioP1;P1;durP2;ratioP2;P2;SDS_P1;SDS_P2;PMS_P1;PMS_P2;Temp;Humidity;BMP_temperature;BMP_pressure;BME280_temperature;BME280_humidity;BME280_pressure;Samples;Min_cycle;Max_cycle;Signal;HPM_P1;HPM_P2
2021/08/24 00:00:52;;;;;;;17.60;4.10;;;;;15.10;100157.00;;;;5046511;28;20483;-78
2021/08/24 00:03:19;;;;;;;25.80;3.50;;;;;15.10;100168.00;;;;5046183;28;20033;-75
2021/08/24 00:05:48;;;;;;;17.08;3.30;;;;;15.00;100161.00;;;;5046597;28;20540;-78
2021/08/24 00:08:15;;;;;;;20.17;3.15;;;;;15.10;100200.00;;;;5047707;28;20017;-76
2021/08/24 00:10:55;;;;;;;20.90;4.30;;;;;15.10;100172.00;;;;5046738;28;20458;-76
2021/08/24 00:13:25;;;;;;;16.38;3.65;;;;;15.20;100187.00;;;;5046736;28;20029;-78
2021/08/24 00:15:51;;;;;;;16.77;3.00;;;;;15.20;100191.00;;;;5046071;28;20035;-82
2021/08/24 00:18:19;;;;;;;22.02;3.92;;;;;15.30;100188.00;;;;5046829;28;20025;-79
2021/08/24 00:20:47;;;;;;;15.02;3.33;;;;;15.30;100185.00;;;;5046500;28;20123;-78
2021/08/24 00:23:16;;;;;;;18.00;3.53;;;;;15.30;100239.00;;;;5046409;28;20021;-78
2021/08/24 00:25:43;;;;;;;22.92;4.05;;;;;15.30;100242.00;;;;5046167;28;20024;-74
2021/08/24 00:28:10;;;;;;;14.75;3.63;;;;;15.40;100193.00;;;;5045881;28;20075;-79
2021/08/24 00:30:40;;;;;;;23.15;4.28;;;;;15.40;100167.00;;;;5046539;28;20427;-76
2021/08/24 00:33:11;;;;;;;15.60;3.83;;;;;15.40;100122.00;;;;5047018;28;20032;-77
2021/08/24 00:35:40;;;;;;;12.23;3.22;;;;;15.40;100155.00;;;;5048153;28;20029;-77
2021/08/24 00:38:09;;;;;;;17.23;3.10;;;;;15.40;100158.00;;;;5047423;28;20040;-76
2021/08/24 00:40:36;;;;;;;15.15;2.22;;;;;15.40;100105.00;;;;5046458;28;20102;-80
2021/08/24 00:43:03;;;;;;;20.20;3.90;;;;;15.40;100118.00;;;;5046632;28;20138;-79
2021/08/24 00:45:33;;;;;;;21.77;3.28;;;;;15.40;100113.00;;;;5047193;28;20029;-81
2021/08/24 00:48:00;;;;;;;17.85;3.17;;;;;15.40;100142.00;;;;5046881;28;20033;-78
2021/08/24 00:50:37;;;;;;;12.10;2.60;;;;;15.50;100189.00;;;;5046851;28;20029;-81
2021/08/24 00:53:08;;;;;;;16.20;3.33;;;;;15.50;100205.00;;;;5046653;28;20125;-75
2021/08/24 00:55:35;;;;;;;16.77;3.22;;;;;15.60;100355.00;;;;5046683;28;20029;-75
2021/08/24 00:58:06;;;;;;;15.90;3.35;;;;;15.70;100655.00;;;;5047086;28;20104;-76
2021/08/24 01:00:34;;;;;;;19.83;3.60;;;;;15.80;100645.00;;;;5047317;28;20085;-74
2021/08/24 01:03:14;;;;;;;19.63;3.53;;;;;15.80;100431.00;;;;5046159;28;20032;-77
2021/08/24 01:05:42;;;;;;;26.55;4.07;;;;;15.40;100360.00;;;;5046821;28;20060;-78
2021/08/24 01:08:45;;;;;;;27.77;4.68;;;;;14.90;100264.00;;;;5046740;28;20037;-78
2021/08/24 01:11:48;;;;;;;16.80;3.38;;;;;14.50;100219.00;;;;5046436;28;20036;-75
2021/08/24 01:14:25;;;;;;;22.92;4.10;;;;;14.20;100233.00;;;;5033425;28;20033;-74
2021/08/24 01:17:02;;;;;;;28.83;4.20;;;;;14.20;100245.00;;;;5046260;28;20032;-76
2021/08/24 01:19:55;;;;;;;29.27;3.85;;;;;14.10;100274.00;;;;5046615;28;20029;-76
2021/08/24 01:22:40;;;;;;;23.77;4.60;;;;;14.10;100334.00;;;;5046036;28;20032;-78
2021/08/24 01:25:13;;;;;;;25.73;4.72;;;;;14.00;100334.00;;;;5045962;28;20052;-77
2021/08/24 01:27:50;;;;;;;28.95;4.80;;;;;14.00;100334.00;;;;5045629;28;20021;-78
2021/08/24 01:30:36;;;;;;;21.80;4.18;;;;;14.00;100302.00;;;;5045579;28;20115;-76
2021/08/24 01:33:17;;;;;;;20.17;4.20;;;;;14.00;100312.00;;;;5045893;28;20029;-78
2021/08/24 01:36:05;;;;;;;26.05;4.60;;;;;13.90;100314.00;;;;5046264;28;20167;-73
2021/08/24 01:38:45;;;;;;;20.05;3.97;;;;;13.90;100274.00;;;;5045674;28;20040;-75
2021/08/24 01:41:27;;;;;;;20.10;3.28;;;;;14.00;100291.00;;;;5046081;28;20484;-75
2021/08/24 01:44:00;;;;;;;21.80;4.45;;;;;14.00;100293.00;;;;5045766;28;20031;-76
2021/08/24 01:46:41;;;;;;;18.08;3.17;;;;;14.00;100268.00;;;;5046330;28;20456;-75
2021/08/24 01:49:08;;;;;;;22.90;3.92;;;;;14.00;100230.00;;;;5046044;28;20415;-79
2021/08/24 01:51:43;;;;;;;19.05;3.17;;;;;14.00;100237.00;;;;5046529;28;20041;-76
2021/08/24 01:54:20;;;;;;;30.50;4.75;;;;;14.00;100184.00;;;;5049585;28;20025;-77
2021/08/24 01:56:48;;;;;;;27.13;4.45;;;;;14.00;100216.00;;;;5050335;28;20032;-80
2021/08/24 01:59:21;;;;;;;30.48;4.05;;;;;14.00;100206.00;;;;5050688;28;20037;-80
2021/08/24 02:02:00;;;;;;;28.52;4.10;;;;;14.00;100211.00;;;;5050189;28;20068;-78
2021/08/24 02:04:40;;;;;;;19.27;4.90;;;;;14.10;100179.00;;;;5049419;28;20025;-75
2021/08/24 02:07:09;;;;;;;22.90;3.67;;;;;14.20;100210.00;;;;5050073;28;20391;-74
2021/08/24 02:09:47;;;;;;;24.15;3.92;;;;;14.10;100224.00;;;;5050007;28;20061;-80
2021/08/24 02:12:17;;;;;;;27.88;4.38;;;;;14.10;100225.00;;;;5031628;28;20119;-74
2021/08/24 02:14:44;;;;;;;26.05;5.72;;;;;14.20;100231.00;;;;5049394;28;20025;-82
2021/08/24 02:17:14;;;;;;;19.15;3.97;;;;;14.30;100239.00;;;;5049799;28;20044;-80
2021/08/24 02:20:15;;;;;;;29.60;4.30;;;;;14.20;100275.00;;;;5050208;28;20031;-76
2021/08/24 02:22:45;;;;;;;22.63;5.10;;;;;14.20;100264.00;;;;5005251;28;20053;-73
2021/08/24 02:25:19;;;;;;;20.95;3.78;;;;;14.20;100266.00;;;;5049140;28;20147;-76
2021/08/24 02:28:02;;;;;;;22.45;4.30;;;;;14.20;100260.00;;;;5049498;28;20040;-81
2021/08/24 02:30:31;;;;;;;27.48;4.38;;;;;14.20;100263.00;;;;5049656;28;20041;-76
2021/08/24 02:32:59;;;;;;;19.30;3.53;;;;;14.30;100244.00;;;;5049288;28;20036;-73
2021/08/24 02:35:32;;;;;;;17.23;3.70;;;;;14.30;100259.00;;;;5048697;28;20047;-75
2021/08/24 02:38:10;;;;;;;20.02;3.53;;;;;14.20;100272.00;;;;5049353;28;20037;-76
2021/08/24 02:41:11;;;;;;;22.73;3.95;;;;;14.20;100263.00;;;;5049312;28;20539;-75
2021/08/24 02:43:49;;;;;;;29.65;4.55;;;;;14.30;100246.00;;;;4981327;28;20069;-74
2021/08/24 02:46:24;;;;;;;29.92;3.63;;;;;14.40;100229.00;;;;5049522;28;20040;-76
2021/08/24 02:48:58;;;;;;;29.88;4.43;;;;;14.50;100224.00;;;;5049253;28;20033;-75
2021/08/24 02:51:26;;;;;;;18.58;4.43;;;;;14.50;100252.00;;;;5049596;28;20032;-75
2021/08/24 02:54:09;;;;;;;26.90;4.25;;;;;14.50;100224.00;;;;5048415;28;20028;-76
2021/08/24 02:56:36;;;;;;;18.40;4.05;;;;;14.60;100245.00;;;;5049194;28;20507;-76
2021/08/24 02:59:02;;;;;;;22.38;3.90;;;;;14.50;100212.00;;;;5049283;28;20032;-75
2021/08/24 03:01:29;;;;;;;27.73;4.28;;;;;14.50;100224.00;;;;5030576;28;20091;-76
2021/08/24 03:03:55;;;;;;;16.58;3.55;;;;;14.50;100235.00;;;;5049139;28;20024;-75
2021/08/24 03:06:22;;;;;;;21.17;3.92;;;;;14.50;100231.00;;;;5048681;28;20091;-76
2021/08/24 03:08:50;;;;;;;18.85;4.10;;;;;14.50;100215.00;;;;5048731;28;20067;-74
2021/08/24 03:11:23;;;;;;;21.75;4.35;;;;;14.40;100216.00;;;;5049294;28;20040;-75
2021/08/24 03:13:58;;;;;;;19.55;3.90;;;;;14.40;100223.00;;;;5049075;28;20155;-74
2021/08/24 03:16:50;;;;;;;25.13;4.25;;;;;14.40;100227.00;;;;5048641;28;20032;-75
2021/08/24 03:19:22;;;;;;;22.77;4.25;;;;;14.50;100216.00;;;;5048159;28;20033;-75
2021/08/24 03:21:49;;;;;;;;;;;;;14.50;100222.00;;;;5048963;28;20028;-75
2021/08/24 03:24:17;;;;;;;12.77;3.20;;;;;14.50;100196.00;;;;5048818;28;20003;-74
2021/08/24 03:26:46;;;;;;;19.77;3.33;;;;;14.50;100187.00;;;;5048841;28;20129;-76
2021/08/24 03:29:15;;;;;;;19.52;4.00;;;;;14.50;100198.00;;;;5030599;28;20167;-74
2021/08/24 03:31:47;;;;;;;22.10;3.75;;;;;14.50;100186.00;;;;5047623;28;20116;-74
2021/08/24 03:34:14;;;;;;;18.50;3.40;;;;;14.50;100183.00;;;;5048490;28;20120;-75
2021/08/24 03:36:40;;;;;;;17.80;3.50;;;;;14.50;100185.00;;;;5049358;28;20555;-74
2021/08/24 03:39:07;;;;;;;20.27;4.03;;;;;14.60;100159.00;;;;5048395;28;20130;-77
2021/08/24 03:41:33;;;;;;;17.35;3.55;;;;;14.50;100190.00;;;;5047901;28;20096;-74
2021/08/24 03:44:00;;;;;;;25.13;4.07;;;;;14.50;100183.00;;;;5047902;28;20040;-74
2021/08/24 03:46:27;;;;;;;17.17;3.78;;;;;14.60;100158.00;;;;5047954;28;20031;-74
2021/08/24 03:48:53;;;;;;;20.05;3.67;;;;;14.60;100166.00;;;;5048537;28;20029;-75
2021/08/24 03:51:20;;;;;;;18.73;3.60;;;;;14.60;100141.00;;;;5048069;28;20075;-74
2021/08/24 03:53:47;;;;;;;16.20;3.17;;;;;14.50;100142.00;;;;5048066;28;20119;-75
2021/08/24 03:56:14;;;;;;;14.32;3.28;;;;;14.50;100151.00;;;;5047646;28;20033;-77
2021/08/24 03:58:41;;;;;;;21.25;4.10;;;;;14.40;100134.00;;;;5047385;28;20021;-74
2021/08/24 04:01:16;;;;;;;28.10;3.70;;;;;14.30;100159.00;;;;5047855;28;20050;-75
2021/08/24 04:03:43;;;;;;;19.98;3.63;;;;;14.40;100140.00;;;;5048692;28;20106;-76
2021/08/24 04:06:09;;;;;;;23.63;4.15;;;;;14.30;100158.00;;;;5047590;28;20028;-75
2021/08/24 04:08:36;;;;;;;18.30;3.65;;;;;14.30;100148.00;;;;5047470;28;20040;-74
2021/08/24 04:11:07;;;;;;;22.98;4.38;;;;;14.30;100118.00;;;;5047368;28;20040;-75
2021/08/24 04:13:34;;;;;;;22.88;4.47;;;;;14.30;100125.00;;;;5047573;28;20029;-75
2021/08/24 04:16:13;;;;;;;19.52;3.70;;;;;14.30;100123.00;;;;5046567;28;20167;-74
2021/08/24 04:18:41;;;;;;;25.05;3.85;;;;;14.30;100133.00;;;;5047284;28;20116;-74
2021/08/24 04:21:14;;;;;;;22.88;4.43;;;;;14.40;100146.00;;;;5047606;28;20021;-74
2021/08/24 04:23:43;;;;;;;20.50;3.75;;;;;14.40;100130.00;;;;5047269;28;20469;-73
2021/08/24 04:26:10;;;;;;;20.17;3.75;;;;;14.50;100109.00;;;;5047743;28;20033;-74
2021/08/24 04:28:36;;;;;;;19.67;4.45;;;;;14.40;100102.00;;;;5048030;28;20034;-73
2021/08/24 04:31:04;;;;;;;18.40;3.10;;;;;14.30;100114.00;;;;5047357;28;20025;-74
2021/08/24 04:33:32;;;;;;;22.35;3.40;;;;;14.40;100138.00;;;;5047275;28;20075;-74
2021/08/24 04:35:59;;;;;;;16.63;3.80;;;;;14.40;100123.00;;;;5047535;28;20033;-75
2021/08/24 04:38:27;;;;;;;22.05;4.18;;;;;14.40;100130.00;;;;5046813;28;20400;-73
2021/08/24 04:40:55;;;;;;;20.10;3.88;;;;;14.40;100128.00;;;;5047051;28;20055;-74
2021/08/24 04:43:22;;;;;;;21.17;4.22;;;;;14.40;100106.00;;;;5047045;28;20040;-75
2021/08/24 04:45:49;;;;;;;19.02;3.35;;;;;14.40;100080.00;;;;5046852;28;20032;-76
2021/08/24 04:48:15;;;;;;;25.90;4.03;;;;;14.30;100068.00;;;;5046959;28;20542;-74
2021/08/24 04:50:42;;;;;;;20.63;3.72;;;;;14.30;100086.00;;;;5046610;28;20028;-74
2021/08/24 04:53:09;;;;;;;24.35;4.53;;;;;14.30;100073.00;;;;5046861;28;20033;-73
2021/08/24 04:55:36;;;;;;;28.02;5.10;;;;;14.30;100088.00;;;;5047897;28;20025;-74
2021/08/24 04:58:03;;;;;;;18.48;3.47;;;;;14.30;100085.00;;;;5047109;28;20029;-74
2021/08/24 05:00:31;;;;;;;21.85;3.58;;;;;14.30;100079.00;;;;5046525;28;20399;-78
2021/08/24 05:02:58;;;;;;;21.25;4.75;;;;;14.30;100092.00;;;;5046249;28;20036;-73
2021/08/24 05:05:25;;;;;;;18.48;4.00;;;;;14.30;100086.00;;;;5046484;28;20142;-74
2021/08/24 05:07:52;;;;;;;21.95;4.13;;;;;14.30;100108.00;;;;5046862;28;20082;-74
2021/08/24 05:10:20;;;;;;;19.67;3.60;;;;;14.30;100099.00;;;;5046405;28;20154;-73
2021/08/24 05:12:46;;;;;;;17.13;4.38;;;;;14.30;100036.00;;;;5046877;28;20082;-75
2021/08/24 05:15:13;;;;;;;21.92;3.83;;;;;14.30;100059.00;;;;5047086;28;20029;-75
2021/08/24 05:17:40;;;;;;;21.67;4.50;;;;;14.30;100054.00;;;;5046457;28;20043;-73
2021/08/24 05:20:08;;;;;;;34.10;4.60;;;;;14.20;100011.00;;;;5046334;28;20033;-74
2021/08/24 05:22:35;;;;;;;22.48;4.60;;;;;14.20;99985.00;;;;5047250;28;20024;-74
2021/08/24 05:25:01;;;;;;;18.20;4.72;;;;;14.30;99978.00;;;;5046355;28;20029;-74
2021/08/24 05:27:28;;;;;;;20.92;3.92;;;;;14.40;100004.00;;;;5028577;28;20033;-76
2021/08/24 05:29:54;;;;;;;27.00;4.82;;;;;14.40;99993.00;;;;5046525;28;20040;-73
2021/08/24 05:32:21;;;;;;;18.50;3.65;;;;;14.50;99998.00;;;;5046241;28;20074;-76
2021/08/24 05:34:47;;;;;;;27.42;4.47;;;;;14.50;99975.00;;;;5046251;28;20048;-74
2021/08/24 05:37:14;;;;;;;21.45;3.65;;;;;14.50;99968.00;;;;5047009;28;20040;-75
2021/08/24 05:39:40;;;;;;;25.25;4.45;;;;;14.50;100004.00;;;;5046549;28;20033;-74
2021/08/24 05:42:07;;;;;;;24.17;4.28;;;;;14.50;99999.00;;;;5046016;28;20063;-74
2021/08/24 05:44:33;;;;;;;23.83;4.70;;;;;14.60;100013.00;;;;5028404;28;20080;-77
2021/08/24 05:47:00;;;;;;;26.38;5.15;;;;;14.70;100051.00;;;;5046449;28;20028;-75
2021/08/24 05:49:33;;;;;;;24.35;4.70;;;;;14.70;100058.00;;;;5047479;28;21063;-74
2021/08/24 05:52:01;;;;;;;27.27;5.57;;;;;14.60;100045.00;;;;5046231;28;20078;-76
2021/08/24 05:54:28;;;;;;;20.77;4.55;;;;;14.50;100056.00;;;;5046156;28;20060;-76
2021/08/24 05:56:54;;;;;;;25.13;4.07;;;;;14.50;100056.00;;;;5046761;28;20032;-74
2021/08/24 05:59:21;;;;;;;25.52;4.65;;;;;14.50;100076.00;;;;5046025;28;20163;-77
2021/08/24 06:01:47;;;;;;;19.65;4.65;;;;;14.60;100058.00;;;;5028141;28;20617;-75
2021/08/24 06:04:14;;;;;;;23.52;4.28;;;;;14.50;100049.00;;;;5046745;28;20037;-76
2021/08/24 06:06:43;;;;;;;27.27;4.57;;;;;14.50;100057.00;;;;5045931;28;20373;-75
2021/08/24 06:09:12;;;;;;;18.60;3.92;;;;;14.40;100025.00;;;;5046116;28;20386;-75
2021/08/24 06:11:47;;;;;;;26.33;5.30;;;;;14.50;100052.00;;;;5046372;28;20484;-74
2021/08/24 06:14:14;;;;;;;28.42;4.55;;;;;14.50;100032.00;;;;5045926;28;20496;-75
2021/08/24 06:16:41;;;;;;;31.27;4.93;;;;;14.50;100062.00;;;;5046288;28;20104;-77
2021/08/24 06:19:09;;;;;;;26.92;5.22;;;;;14.60;100038.00;;;;5046274;28;20186;-76
2021/08/24 06:21:37;;;;;;;25.63;3.67;;;;;14.60;100004.00;;;;5046298;28;20029;-80
2021/08/24 06:24:05;;;;;;;18.90;4.63;;;;;14.60;99977.00;;;;5046365;28;20120;-75
2021/08/24 06:26:32;;;;;;;24.98;4.97;;;;;14.60;99995.00;;;;5027955;28;20036;-76
2021/08/24 06:28:59;;;;;;;23.95;4.65;;;;;14.60;99979.00;;;;5045813;28;20039;-77
2021/08/24 06:31:29;;;;;;;25.77;4.53;;;;;14.60;99990.00;;;;5045733;28;20029;-74
2021/08/24 06:33:56;;;;;;;19.75;4.47;;;;;14.70;99949.00;;;;5045695;28;20028;-76
2021/08/24 06:36:23;;;;;;;16.63;4.10;;;;;14.70;99916.00;;;;5046030;28;20078;-75
2021/08/24 06:38:50;;;;;;;27.30;5.10;;;;;14.80;99931.00;;;;5047103;28;20025;-77
2021/08/24 06:41:18;;;;;;;24.67;4.53;;;;;14.80;99964.00;;;;5049611;28;20053;-75
2021/08/24 06:43:45;;;;;;;25.85;5.05;;;;;14.90;99917.00;;;;5031983;28;20033;-76
2021/08/24 06:46:12;;;;;;;17.27;4.30;;;;;14.90;99927.00;;;;5049052;28;20018;-75
2021/08/24 06:48:38;;;;;;;18.88;4.45;;;;;14.90;99948.00;;;;5031032;28;20032;-74
2021/08/24 06:51:05;;;;;;;25.60;4.80;;;;;14.90;100004.00;;;;5031072;28;20041;-77
2021/08/24 06:53:32;;;;;;;25.42;4.97;;;;;15.00;100028.00;;;;5049002;28;20028;-75
2021/08/24 06:55:59;;;;;;;28.00;4.80;;;;;15.00;99982.00;;;;5048667;28;20033;-76
2021/08/24 06:58:25;;;;;;;22.85;5.82;;;;;15.00;99976.00;;;;5048861;28;20078;-77
2021/08/24 07:00:52;;;;;;;35.70;5.25;;;;;15.00;99891.00;;;;5049062;28;20021;-77
2021/08/24 07:03:18;;;;;;;18.90;4.03;;;;;14.90;99880.00;;;;5049155;28;20037;-80
2021/08/24 07:05:49;;;;;;;29.73;4.95;;;;;14.70;99881.00;;;;5049154;28;20033;-82
2021/08/24 07:08:16;;;;;;;21.52;4.70;;;;;14.50;99930.00;;;;5034977;28;20439;-82
2021/08/24 07:10:43;;;;;;;38.95;5.10;;;;;14.40;99954.00;;;;5060095;28;20052;-82
2021/08/24 07:25:15;;;;;;;37.22;7.07;;;;;14.20;99878.00;;;;5124916;27;21137;-81
2021/08/24 07:27:42;;;;;;;38.20;6.50;;;;;14.20;99915.00;;;;5103071;28;20036;-79
2021/08/24 07:30:09;;;;;;;41.80;7.13;;;;;14.20;99900.00;;;;5105086;28;20024;-81
2021/08/24 07:32:36;;;;;;;34.72;6.63;;;;;14.20;99877.00;;;;5105894;28;20024;-82
2021/08/24 07:35:05;;;;;;;34.35;5.75;;;;;14.10;99873.00;;;;5105101;28;20042;-77
2021/08/24 07:37:31;;;;;;;33.30;5.35;;;;;14.10;99877.00;;;;5104794;28;20490;-77
2021/08/24 07:39:58;;;;;;;37.50;5.93;;;;;14.10;99883.00;;;;5104023;28;20066;-80
2021/08/24 07:42:25;;;;;;;39.95;5.90;;;;;14.00;99863.00;;;;5103364;28;20031;-85
2021/08/24 07:44:51;;;;;;;29.60;5.78;;;;;14.00;99829.00;;;;5103269;28;20024;-79
2021/08/24 07:47:18;;;;;;;30.85;5.75;;;;;13.90;99869.00;;;;5104873;28;20508;-79
2021/08/24 07:49:47;;;;;;;31.45;5.75;;;;;13.80;99913.00;;;;5104421;28;20114;-81
2021/08/24 07:52:14;;;;;;;32.13;6.13;;;;;13.70;99913.00;;;;5103045;28;20077;-85
2021/08/24 07:54:41;;;;;;;35.78;6.32;;;;;13.70;99899.00;;;;5104586;28;20020;-81
2021/08/24 07:57:08;;;;;;;42.70;6.10;;;;;13.60;99923.00;;;;5103309;28;20063;-78
2021/08/24 07:59:34;;;;;;;43.45;7.43;;;;;13.70;99960.00;;;;5104187;28;20047;-83
2021/08/24 08:02:01;;;;;;;32.58;6.20;;;;;13.70;99916.00;;;;5103166;28;20035;-81
2021/08/24 08:04:28;;;;;;;44.50;5.85;;;;;13.60;99913.00;;;;5103472;28;20490;-78
2021/08/24 08:06:55;;;;;;;38.90;6.03;;;;;13.60;99946.00;;;;5104115;28;20039;-81
2021/08/24 08:09:22;;;;;;;45.30;6.30;;;;;13.60;99928.00;;;;5103175;28;20057;-84
2021/08/24 08:11:51;;;;;;;38.90;6.03;;;;;13.60;99905.00;;;;5104158;28;20517;-80
2021/08/24 08:14:18;;;;;;;44.70;6.80;;;;;13.60;99916.00;;;;5090280;28;20123;-84
2021/08/24 08:16:44;;;;;;;40.38;6.05;;;;;13.60;99909.00;;;;5082506;28;20102;-79
2021/08/24 08:19:11;;;;;;;47.92;6.40;;;;;13.60;99891.00;;;;5083735;28;20437;-85
2021/08/24 08:21:39;;;;;;;36.35;5.88;;;;;13.50;99859.00;;;;5083621;28;20060;-80
2021/08/24 08:24:07;;;;;;;48.90;7.07;;;;;13.60;99855.00;;;;5080719;28;20095;-78
2021/08/24 08:26:34;;;;;;;44.70;7.15;;;;;13.60;99876.00;;;;5070661;28;20901;-80
2021/08/24 08:29:05;;;;;;;30.75;6.35;;;;;13.60;99853.00;;;;5071304;28;20544;-81
2021/08/24 08:31:33;;;;;;;38.95;6.65;;;;;13.60;99860.00;;;;5070085;28;20060;-81
2021/08/24 08:34:01;;;;;;;47.17;6.60;;;;;13.50;99896.00;;;;5069898;28;20322;-83
2021/08/24 08:36:27;;;;;;;57.42;6.68;;;;;13.50;99928.00;;;;5069992;28;20028;-85
2021/08/24 08:38:54;;;;;;;53.63;6.70;;;;;13.50;99915.00;;;;5069330;28;20024;-82
2021/08/24 08:41:49;;;;;;;40.63;6.43;;;;;13.40;99892.00;;;;5069019;28;20495;-79
2021/08/24 08:44:46;;;;;;;37.40;7.50;;;;;13.50;99898.00;;;;5069556;28;20032;-80
2021/08/24 08:47:43;;;;;;;47.05;7.78;;;;;13.40;99899.00;;;;5070424;28;20036;-79
2021/08/24 08:50:25;;;;;;;51.22;6.93;;;;;13.40;99881.00;;;;5069646;28;20028;-79
2021/08/24 08:52:52;;;;;;;45.08;6.38;;;;;13.30;99895.00;;;;5069453;28;20039;-82
2021/08/24 08:55:34;;;;;;;42.80;6.18;;;;;13.30;99881.00;;;;5069038;28;20392;-78
2021/08/24 08:58:33;;;;;;;43.80;6.97;;;;;13.30;99874.00;;;;5069006;28;20024;-80
2021/08/24 09:01:18;;;;;;;43.30;6.53;;;;;13.30;99925.00;;;;5069572;28;20028;-81
2021/08/24 09:04:12;;;;;;;47.38;6.75;;;;;13.20;99945.00;;;;5067568;28;20032;-80
2021/08/24 09:06:40;;;;;;;40.00;6.40;;;;;13.20;99948.00;;;;5061522;28;20101;-83
2021/08/24 09:09:08;;;;;;;39.75;8.32;;;;;13.30;99939.00;;;;5069337;28;20494;-84
2021/08/24 09:11:38;;;;;;;35.05;6.40;;;;;13.30;99955.00;;;;5068958;28;20024;-83
2021/08/24 09:14:19;;;;;;;43.57;8.27;;;;;13.30;99933.00;;;;5069089;28;20502;-80
2021/08/24 09:16:56;;;;;;;39.22;6.00;;;;;13.30;99886.00;;;;5067920;28;20108;-80
2021/08/24 09:19:40;;;;;;;49.63;6.70;;;;;13.30;99879.00;;;;5069318;28;20410;-82
2021/08/24 09:22:09;;;;;;;42.80;7.30;;;;;13.20;99875.00;;;;5068028;28;20032;-81
2021/08/24 09:24:36;;;;;;;40.33;7.90;;;;;13.40;99882.00;;;;5069471;28;20056;-81
2021/08/24 09:27:09;;;;;;;39.70;8.13;;;;;13.50;99904.00;;;;5069064;28;20631;-79
2021/08/24 09:29:44;;;;;;;44.97;7.90;;;;;13.60;99900.00;;;;5070995;28;20074;-80
2021/08/24 09:32:13;;;;;;;39.47;7.97;;;;;13.50;99918.00;;;;5069089;28;20029;-80
2021/08/24 09:34:44;;;;;;;35.38;6.82;;;;;13.50;99940.00;;;;5069336;28;20116;-85
2021/08/24 09:37:22;;;;;;;31.23;7.73;;;;;13.40;99931.00;;;;5066272;28;20059;-85
2021/08/24 09:39:56;;;;;;;29.10;6.93;;;;;13.20;99925.00;;;;5066289;28;20774;-82
2021/08/24 09:42:47;;;;;;;27.02;6.57;;;;;13.10;99898.00;;;;5068299;28;20055;-79
2021/08/24 09:45:19;;;;;;;34.92;7.10;;;;;13.10;99920.00;;;;5068222;28;20036;-80
2021/08/24 09:47:58;;;;;;;33.70;6.82;;;;;13.10;99936.00;;;;5066623;28;20035;-81
2021/08/24 09:50:40;;;;;;;29.58;6.70;;;;;13.00;99945.00;;;;5065943;28;20024;-80
2021/08/24 09:53:22;;;;;;;35.42;7.22;;;;;13.00;99940.00;;;;5068145;28;20036;-78
2021/08/24 09:55:48;;;;;;;;;;;;;13.00;99951.00;;;;5068702;28;20032;-81
2021/08/24 09:58:35;;;;;;;37.58;8.63;;;;;13.00;99984.00;;;;5067939;28;19913;-79
2021/08/24 10:01:06;;;;;;;23.25;6.75;;;;;13.10;99989.00;;;;5068180;28;20032;-78
2021/08/24 10:03:40;;;;;;;46.75;7.25;;;;;13.20;99967.00;;;;5067879;28;20021;-78
2021/08/24 10:06:27;;;;;;;27.95;6.60;;;;;13.20;99956.00;;;;5067749;28;20033;-82
2021/08/24 10:09:11;;;;;;;46.60;7.97;;;;;13.20;99958.00;;;;5064446;28;20048;-80
2021/08/24 10:11:38;;;;;;;36.65;8.45;;;;;13.40;99989.00;;;;5065695;28;20024;-83
2021/08/24 10:26:23;;;;;;;44.63;11.45;;;;;13.60;100004.00;;;;5124971;27;20415;-78
2021/08/24 10:28:58;;;;;;;45.00;11.10;;;;;13.60;99948.00;;;;5125264;27;20084;-76
2021/08/24 10:31:49;;;;;;;33.72;11.02;;;;;13.60;99944.00;;;;5124892;27;20023;-76
2021/08/24 10:34:27;;;;;;;37.97;11.02;;;;;13.60;99950.00;;;;5124849;27;20034;-79
2021/08/24 10:37:35;;;;;;;50.13;12.65;;;;;13.70;99975.00;;;;5123581;28;20589;-77
2021/08/24 10:40:07;;;;;;;42.97;12.43;;;;;13.80;99978.00;;;;5124382;27;20043;-77
2021/08/24 10:42:36;;;;;;;42.42;13.98;;;;;13.80;100003.00;;;;5125328;28;20508;-75
2021/08/24 10:45:20;;;;;;;36.33;16.05;;;;;13.80;100027.00;;;;5125547;27;20023;-77
2021/08/24 10:47:58;;;;;;;37.80;13.90;;;;;13.80;100054.00;;;;5123270;28;20032;-76
2021/08/24 10:50:38;;;;;;;43.63;14.75;;;;;13.90;100065.00;;;;5124073;27;20116;-77
2021/08/24 10:53:27;;;;;;;32.33;13.93;;;;;13.90;99997.00;;;;5124907;27;20032;-79
2021/08/24 10:56:04;;;;;;;36.28;13.75;;;;;14.00;99981.00;;;;5124397;27;20031;-77
2021/08/24 10:58:55;;;;;;;34.13;12.52;;;;;13.90;99973.00;;;;5122765;28;20027;-76
2021/08/24 11:01:33;;;;;;;41.72;12.38;;;;;13.90;99962.00;;;;5124447;27;20535;-78
2021/08/24 11:04:15;;;;;;;37.25;10.57;;;;;13.90;99981.00;;;;5124410;27;20032;-76
2021/08/24 11:07:05;;;;;;;32.92;11.85;;;;;13.90;99968.00;;;;5124233;27;20516;-79
2021/08/24 11:09:41;;;;;;;25.98;10.13;;;;;13.90;99956.00;;;;5094434;27;20047;-78
2021/08/24 11:12:26;;;;;;;31.48;10.30;;;;;13.90;100046.00;;;;5125028;27;20032;-78
2021/08/24 11:15:41;;;;;;;40.35;17.33;;;;;14.00;100048.00;;;;5123979;27;20027;-77
2021/08/24 11:18:21;;;;;;;25.42;10.73;;;;;13.90;100034.00;;;;5119139;28;20040;-76
2021/08/24 11:21:02;;;;;;;33.47;11.70;;;;;13.80;100004.00;;;;5124140;28;20417;-76
2021/08/24 11:23:47;;;;;;;43.00;11.40;;;;;13.80;99913.00;;;;5123811;28;20020;-79
2021/08/24 11:26:39;;;;;;;41.22;11.02;;;;;13.70;99891.00;;;;5115349;27;20509;-75
2021/08/24 11:29:46;;;;;;;26.98;10.40;;;;;13.50;99904.00;;;;5109908;28;20490;-75
2021/08/24 11:32:36;;;;;;;49.65;12.27;;;;;13.50;99862.00;;;;5096090;28;20036;-78
2021/08/24 11:35:35;;;;;;;37.38;10.10;;;;;13.50;99850.00;;;;5108337;28;20465;-78
2021/08/24 11:38:06;;;;;;;38.17;12.43;;;;;13.60;99846.00;;;;5108190;28;20113;-75
2021/08/24 11:40:59;;;;;;;41.80;11.23;;;;;13.70;99846.00;;;;5110363;28;20036;-76
2021/08/24 11:43:49;;;;;;;26.67;9.60;;;;;13.70;99887.00;;;;5110293;28;20105;-77
2021/08/24 11:46:27;;;;;;;35.40;10.60;;;;;13.80;99902.00;;;;5109309;28;20456;-75
2021/08/24 11:49:11;;;;;;;41.33;12.45;;;;;13.90;99907.00;;;;5109449;28;20486;-78
2021/08/24 11:51:44;;;;;;;44.95;12.63;;;;;13.90;99899.00;;;;5109914;28;20060;-78
2021/08/24 11:54:35;;;;;;;48.33;12.15;;;;;13.90;99905.00;;;;5111692;28;20474;-77
2021/08/24 11:57:14;;;;;;;36.30;10.98;;;;;13.90;99940.00;;;;5109507;28;20032;-75
2021/08/24 11:59:46;;;;;;;31.15;10.88;;;;;13.90;99964.00;;;;5109651;28;20063;-77
2021/08/24 12:02:38;;;;;;;42.38;11.85;;;;;13.90;99985.00;;;;5108393;28;20069;-75
2021/08/24 12:05:12;;;;;;;34.38;13.05;;;;;14.10;100053.00;;;;5109923;28;20512;-75
2021/08/24 12:07:41;;;;;;;37.60;13.73;;;;;14.10;100004.00;;;;5108971;28;20402;-77
2021/08/24 12:10:19;;;;;;;41.80;11.40;;;;;14.00;99930.00;;;;5110205;28;20048;-79
2021/08/24 12:13:04;;;;;;;41.15;11.88;;;;;13.90;99868.00;;;;5109295;28;20482;-75
2021/08/24 12:15:47;;;;;;;35.72;12.95;;;;;13.90;99848.00;;;;5109856;28;20042;-75
2021/08/24 12:18:19;;;;;;;22.40;10.02;;;;;13.80;99885.00;;;;5109524;28;20027;-76
2021/08/24 12:20:50;;;;;;;33.60;11.68;;;;;13.80;99903.00;;;;5109162;28;20114;-75
2021/08/24 12:23:38;;;;;;;;;;;;;13.80;99891.00;;;;5110061;28;20057;-75
2021/08/24 12:26:32;;;;;;;39.28;13.32;;;;;13.70;99898.00;;;;5109410;27;19919;-77
2021/08/24 12:29:08;;;;;;;34.28;12.50;;;;;13.70;99880.00;;;;5109257;28;20028;-77
2021/08/24 12:31:41;;;;;;;39.75;13.25;;;;;13.70;99867.00;;;;5109117;28;20517;-76
2021/08/24 12:34:34;;;;;;;36.17;13.93;;;;;13.70;99866.00;;;;5109441;28;20042;-75
2021/08/24 12:37:21;;;;;;;36.22;12.57;;;;;13.80;99884.00;;;;5084562;28;20524;-77
2021/08/24 12:39:54;;;;;;;37.28;13.77;;;;;14.00;99884.00;;;;5098244;28;20042;-76
2021/08/24 12:42:37;;;;;;;40.80;12.23;;;;;14.10;99881.00;;;;5108665;28;20027;-76
2021/08/24 12:45:03;;;;;;;38.58;13.60;;;;;14.20;99869.00;;;;5108893;28;20038;-75
2021/08/24 12:47:44;;;;;;;38.55;10.35;;;;;14.40;99911.00;;;;5108748;28;20027;-75
2021/08/24 12:50:10;;;;;;;41.83;11.30;;;;;14.60;99903.00;;;;5108492;28;20621;-77
2021/08/24 12:52:41;;;;;;;32.65;12.10;;;;;15.10;99875.00;;;;5108834;28;20028;-76
2021/08/24 12:55:15;;;;;;;31.40;14.80;;;;;15.90;99883.00;;;;5108053;28;20508;-76
2021/08/24 12:57:48;;;;;;;27.17;11.73;;;;;16.30;99919.00;;;;5108775;28;20123;-78